Portada
METAR-TAF:

METAR-TAF

Aeroports :

Barnaül, Rússia

latitud: 53-26N, longitud: 083-31E, altitud: 252 m

Observació

L'informe es va fer fa 23 minuts, a les 10:00 UTC
Vent 10 kt del Sud/Sud-Oest
Temperatura 6°C
Humitat 42%
Pressió 1029 hPa
Visibilitat 10 km o més
sense núvols per sota de 1500 mi sense presència de cumulonimbus.

METAR: UNBB 301000Z 20005MPS CAVOK 06/M06 Q1029 R24/CLRD66 NOSIG RMK QFE749

Hora: 17:23 (10:23 UTC)

Pronòstic

L'informe es va fer fa 2 hores i 23 minuts, a les 08:00 UTC
Pronòstic vàlid del 30 a les 09 UTC al 31 a les 09 UTC
Vent 12 kt del Sud/Sud-Oest amb ràfegues de 23 kt
Visibilitat 10 km o més
sense núvols per sota de 1500 mi sense presència de cumulonimbus.
Evolucionant progressivament
l' 30 a les 12 UTC al 30 a les 14 UTC
Vent 6 kt del Sud amb ràfegues de 16 kt
Evolucionant progressivament
l' 31 a les 00 UTC al 31 a les 03 UTC
Vent 6 kt del Sud/Sud-Est

TAF: UNBB 300800Z 3009/3109 20006G12MPS CAVOK BECMG 3012/3014 18003G08MPS BECMG 3100/3103 15003MPS

Observacions i pronòstics meteorològics de més de 4000 aeroports (METAR i TAF).

Les estacions disponibles són els punts grocs i vermells al mapa.

Posi el ratolí al punt desitjat per veure el nom de l'estació.

Feu clic per veure les observacions i els pronòstics meteorològics.

Per canviar el mapa: feu clic els botons verds amb una creu de color negre per apropar; al botó verd amb un guió per allunyar la imatge; o en les fletxes verdes per a mapes adjacents.


METAR-TAF: